createdAt,value
2023-05-13T00:00:36.491Z,19.8
2023-05-13T00:20:36.012Z,19.7
2023-05-13T00:40:34.960Z,19.6
2023-05-13T01:00:38.373Z,19.5
2023-05-13T01:20:35.144Z,19.5
2023-05-13T01:40:42.317Z,19.4
2023-05-13T02:00:35.545Z,19.2
2023-05-13T02:20:35.888Z,19.2
2023-05-13T02:40:41.876Z,19.1
2023-05-13T03:00:36.881Z,19.1
2023-05-13T03:20:37.850Z,19
2023-05-13T03:40:34.844Z,18.9
2023-05-13T04:00:35.500Z,18.9
2023-05-13T04:20:35.947Z,18.8
2023-05-13T04:40:50.997Z,18.8
2023-05-13T05:00:35.712Z,18.7
2023-05-13T05:21:01.069Z,18.8
2023-05-13T05:40:39.392Z,18.7
2023-05-13T06:00:44.781Z,18.7
2023-05-13T06:20:51.367Z,18.7
2023-05-13T06:40:45.743Z,18.8
2023-05-13T07:00:51.396Z,18.9
2023-05-13T07:20:54.834Z,19
2023-05-13T07:40:46.773Z,19
2023-05-13T08:00:43.680Z,19.1
2023-05-13T08:20:48.121Z,19.1
2023-05-13T08:40:48.840Z,19.2
2023-05-13T09:00:44.401Z,19.3
2023-05-13T09:20:48.570Z,18.7
2023-05-13T09:40:50.926Z,18.5
2023-05-13T10:00:51.162Z,18.6
2023-05-13T10:20:45.251Z,18.6
2023-05-13T10:40:56.806Z,18.6
2023-05-13T11:00:47.125Z,18.6
2023-05-13T11:21:03.774Z,18.8
2023-05-13T11:40:50.879Z,19
2023-05-13T12:00:46.829Z,19.2
2023-05-13T12:20:49.478Z,19.2
2023-05-13T12:40:48.908Z,19.4
2023-05-13T13:00:43.137Z,19.4
2023-05-13T13:20:47.715Z,19.5
2023-05-13T13:40:47.958Z,19.6
2023-05-13T14:00:49.954Z,19.7
2023-05-13T14:20:44.372Z,19.7
2023-05-13T14:40:53.319Z,19.8
2023-05-13T15:00:54.755Z,19.9
2023-05-13T15:20:58.613Z,19.9
2023-05-13T15:40:52.061Z,19.9
2023-05-13T16:00:53.186Z,19.9
2023-05-13T16:20:55.357Z,19.8
2023-05-13T16:40:55.981Z,19.8
2023-05-13T17:00:59.595Z,19.9
2023-05-13T17:20:53.132Z,19.9
2023-05-13T17:40:57.977Z,19.9
2023-05-13T18:00:57.975Z,19.5
2023-05-13T18:20:53.739Z,19.5
2023-05-13T18:41:04.333Z,19.7
2023-05-13T19:00:36.688Z,19.6
2023-05-13T19:20:34.819Z,19.7
2023-05-13T19:40:36.544Z,19.7
2023-05-13T20:00:37.476Z,19.6
2023-05-13T20:20:36.165Z,19.6
2023-05-13T20:40:35.559Z,19.5
2023-05-13T21:00:34.935Z,19.5
2023-05-13T21:20:35.990Z,19.5
2023-05-13T21:40:37.095Z,19.4
2023-05-13T22:00:49.562Z,19.3
2023-05-13T22:20:39.035Z,19.2
2023-05-13T22:40:36.250Z,19.2
2023-05-13T23:00:35.327Z,19.1
2023-05-13T23:20:36.854Z,19
2023-05-13T23:40:35.452Z,18.9
